Time,TemperatureF,DewpointF,PressureIn,WindDirection,WindDirectionDegrees,WindSpeedMPH,WindSpeedGustMPH,Humidity,HourlyPrecipIn,Conditions,Clouds,dailyrainin,SoftwareType,DateUTC
2013-05-14 00:00:00,38.5,20.5,30.09,NNE,14,0.0,0.0,48,0.00,,---,0.00,VWS V14.01,2013-05-14 04:00:00,
2013-05-14 00:01:00,38.3,20.4,30.09,NNE,14,0.0,0.0,48,0.00,,---,0.12,VWS V14.01,2013-05-14 04:01:00,
2013-05-14 00:06:00,38.3,20.8,30.09,NNE,14,0.0,0.0,49,0.00,,---,0.00,VWS V14.01,2013-05-14 04:06:00,
2013-05-14 00:11:00,38.3,20.8,30.09,NNE,14,0.0,0.0,49,0.00,,---,0.00,VWS V14.01,2013-05-14 04:11:00,
2013-05-14 00:16:00,38.1,21.1,30.09,NNE,14,0.0,0.0,50,0.00,,---,0.00,VWS V14.01,2013-05-14 04:16:00,
2013-05-14 00:21:00,38.1,21.1,30.09,NNE,14,0.0,0.0,50,0.00,,---,0.00,VWS V14.01,2013-05-14 04:21:00,
2013-05-14 00:26:00,38.1,21.1,30.09,NNE,14,0.0,0.0,50,0.00,,---,0.00,VWS V14.01,2013-05-14 04:26:00,
2013-05-14 00:31:00,37.9,21.0,30.09,NNE,14,0.0,0.0,50,0.00,,---,0.00,VWS V14.01,2013-05-14 04:31:00,
2013-05-14 00:36:00,37.8,21.3,30.09,NNE,14,0.0,0.0,51,0.00,,---,0.00,VWS V14.01,2013-05-14 04:36:00,
2013-05-14 00:41:00,37.8,21.7,30.09,NNE,14,0.0,2.7,52,0.00,,---,0.00,VWS V14.01,2013-05-14 04:41:00,
2013-05-14 00:46:00,37.8,22.2,30.09,NNE,14,0.0,0.0,53,0.00,,---,0.00,VWS V14.01,2013-05-14 04:46:00,
2013-05-14 00:51:00,37.6,22.0,30.09,NNE,14,0.0,0.0,53,0.00,,---,0.00,VWS V14.01,2013-05-14 04:51:00,
2013-05-14 00:56:00,37.6,22.5,30.09,NNE,14,0.0,0.0,54,0.00,,---,0.00,VWS V14.01,2013-05-14 04:56:00,
2013-05-14 01:01:00,37.4,22.3,30.09,NNE,14,0.0,0.0,54,0.00,,---,0.00,VWS V14.01,2013-05-14 05:01:00,
2013-05-14 01:06:00,37.2,22.1,30.09,NNE,14,3.1,3.1,54,0.00,,---,0.00,VWS V14.01,2013-05-14 05:06:00,
2013-05-14 01:11:00,37.2,22.1,30.09,NNE,14,0.0,0.0,54,0.00,,---,0.00,VWS V14.01,2013-05-14 05:11:00,
2013-05-14 01:16:00,37.0,22.4,30.09,NNE,14,0.0,2.7,55,0.00,,---,0.00,VWS V14.01,2013-05-14 05:16:00,
2013-05-14 01:21:00,36.9,22.2,30.09,NNE,14,0.0,2.7,55,0.00,,---,0.00,VWS V14.01,2013-05-14 05:21:00,
2013-05-14 01:26:00,36.9,21.8,30.09,NNE,14,0.0,3.1,54,0.00,,---,0.00,VWS V14.01,2013-05-14 05:26:00,
2013-05-14 01:31:00,36.9,22.2,30.09,NNE,14,2.7,3.1,55,0.00,,---,0.00,VWS V14.01,2013-05-14 05:31:00,
2013-05-14 01:36:00,36.7,22.0,30.09,NNE,14,0.0,0.0,55,0.00,,---,0.00,VWS V14.01,2013-05-14 05:36:00,
2013-05-14 01:41:00,36.9,22.2,30.09,NNE,14,0.0,2.7,55,0.00,,---,0.00,VWS V14.01,2013-05-14 05:41:00,
2013-05-14 01:46:00,36.9,22.2,30.09,NNE,14,0.0,0.0,55,0.00,,---,0.00,VWS V14.01,2013-05-14 05:46:00,
2013-05-14 01:51:00,36.9,22.6,30.09,NNE,14,0.0,0.0,56,0.00,,---,0.00,VWS V14.01,2013-05-14 05:51:00,
2013-05-14 01:56:00,36.9,22.6,30.09,NNE,14,0.0,2.7,56,0.00,,---,0.00,VWS V14.01,2013-05-14 05:56:00,
2013-05-14 02:01:00,36.9,22.6,30.09,NNE,14,0.0,0.0,56,0.00,,---,0.00,VWS V14.01,2013-05-14 06:01:00,
2013-05-14 02:06:00,37.0,22.8,30.09,NNE,14,0.0,0.0,56,0.00,,---,0.00,VWS V14.01,2013-05-14 06:06:00,
2013-05-14 02:11:00,37.4,23.6,30.09,NNE,14,0.0,0.0,57,0.00,,---,0.00,VWS V14.01,2013-05-14 06:11:00,
2013-05-14 02:16:00,37.2,23.0,30.09,NNE,14,0.0,0.0,56,0.00,,---,0.00,VWS V14.01,2013-05-14 06:16:00,
2013-05-14 02:21:00,37.0,22.8,30.09,NNE,14,0.0,0.0,56,0.00,,---,0.00,VWS V14.01,2013-05-14 06:21:00,
2013-05-14 02:26:00,37.2,23.0,30.09,NNE,14,0.0,0.0,56,0.00,,---,0.00,VWS V14.01,2013-05-14 06:26:00,
2013-05-14 02:31:00,37.8,23.9,30.09,NNE,13,2.7,4.9,57,0.00,,---,0.00,VWS V14.01,2013-05-14 06:31:00,
2013-05-14 02:36:00,38.1,24.2,30.06,WNW,293,0.0,6.3,57,0.00,,---,0.00,VWS V14.01,2013-05-14 06:36:00,
2013-05-14 02:41:00,38.5,23.7,30.06,WNW,286,0.0,4.9,55,0.00,,---,0.00,VWS V14.01,2013-05-14 06:41:00,
2013-05-14 02:46:00,38.8,22.7,30.06,WNW,285,3.6,5.4,52,0.00,,---,0.00,VWS V14.01,2013-05-14 06:46:00,
2013-05-14 02:51:00,39.4,22.3,30.06,West,278,5.4,7.8,50,0.00,,---,0.00,VWS V14.01,2013-05-14 06:51:00,
2013-05-14 02:56:00,39.7,20.1,30.06,WNW,290,0.0,7.8,45,0.00,,---,0.00,VWS V14.01,2013-05-14 06:56:00,
2013-05-14 03:02:00,40.1,19.4,30.06,WNW,289,0.0,0.0,43,0.00,,---,0.00,VWS V14.01,2013-05-14 07:02:00,
2013-05-14 03:07:00,40.1,18.3,30.06,WNW,289,0.0,4.0,41,0.00,,---,0.00,VWS V14.01,2013-05-14 07:07:00,
2013-05-14 03:12:00,40.1,17.7,30.06,WNW,288,6.7,7.8,40,0.00,,---,0.00,VWS V14.01,2013-05-14 07:12:00,
2013-05-14 03:17:00,40.1,17.1,30.06,WNW,293,0.0,4.9,39,0.00,,---,0.00,VWS V14.01,2013-05-14 07:17:00,
2013-05-14 03:22:00,40.1,17.1,30.06,West,277,3.1,4.0,39,0.00,,---,0.00,VWS V14.01,2013-05-14 07:22:00,
2013-05-14 03:27:00,39.9,17.0,30.06,West,276,0.0,5.8,39,0.00,,---,0.00,VWS V14.01,2013-05-14 07:27:00,
2013-05-14 03:32:00,39.7,16.8,30.06,West,277,4.5,5.8,39,0.00,,---,0.00,VWS V14.01,2013-05-14 07:32:00,
2013-05-14 03:37:00,39.7,16.8,30.06,West,279,4.0,6.3,39,0.00,,---,0.00,VWS V14.01,2013-05-14 07:37:00,
2013-05-14 03:42:00,39.7,16.8,30.06,West,279,0.0,3.6,39,0.00,,---,0.00,VWS V14.01,2013-05-14 07:42:00,
2013-05-14 03:47:00,39.0,16.8,30.06,West,279,0.0,3.1,40,0.00,,---,0.00,VWS V14.01,2013-05-14 07:47:00,
2013-05-14 03:52:00,38.5,16.8,30.09,West,279,0.0,2.7,41,0.00,,---,0.00,VWS V14.01,2013-05-14 07:52:00,
2013-05-14 03:57:00,38.5,17.4,30.09,West,279,0.0,3.1,42,0.00,,---,0.00,VWS V14.01,2013-05-14 07:57:00,
2013-05-14 04:02:00,38.7,17.6,30.09,West,279,0.0,3.6,42,0.00,,---,0.00,VWS V14.01,2013-05-14 08:02:00,
2013-05-14 04:07:00,38.7,17.6,30.09,West,279,0.0,4.0,42,0.00,,---,0.00,VWS V14.01,2013-05-14 08:07:00,
2013-05-14 04:12:00,38.8,17.7,30.09,WNW,286,3.6,4.5,42,0.00,,---,0.00,VWS V14.01,2013-05-14 08:12:00,
2013-05-14 04:17:00,39.0,17.9,30.09,WNW,283,0.0,6.9,42,0.00,,---,0.00,VWS V14.01,2013-05-14 08:17:00,
2013-05-14 04:22:00,39.0,17.3,30.06,WNW,283,0.0,0.0,41,0.00,,---,0.00,VWS V14.01,2013-05-14 08:22:00,
2013-05-14 04:27:00,39.2,17.5,30.06,WNW,283,0.0,3.6,41,0.00,,---,0.00,VWS V14.01,2013-05-14 08:27:00,
2013-05-14 04:32:00,38.8,17.2,30.06,WNW,283,0.0,3.6,41,0.00,,---,0.00,VWS V14.01,2013-05-14 08:32:00,
2013-05-14 04:37:00,38.5,16.8,30.06,WNW,283,0.0,0.0,41,0.00,,---,0.00,VWS V14.01,2013-05-14 08:37:00,
2013-05-14 04:42:00,38.3,16.7,30.06,WNW,283,0.0,0.0,41,0.00,,---,0.00,VWS V14.01,2013-05-14 08:42:00,
2013-05-14 04:47:00,38.1,16.5,30.06,WNW,283,0.0,0.0,41,0.00,,---,0.00,VWS V14.01,2013-05-14 08:47:00,
2013-05-14 04:52:00,37.9,16.4,30.09,WNW,283,0.0,0.0,41,0.00,,---,0.00,VWS V14.01,2013-05-14 08:52:00,
2013-05-14 04:57:00,37.8,16.2,30.09,WNW,283,0.0,0.0,41,0.00,,---,0.00,VWS V14.01,2013-05-14 08:57:00,
2013-05-14 05:02:00,37.4,16.4,30.09,WNW,283,0.0,0.0,42,0.00,,---,0.00,VWS V14.01,2013-05-14 09:02:00,
2013-05-14 05:07:00,37.0,16.1,30.09,WNW,283,0.0,2.7,42,0.00,,---,0.00,VWS V14.01,2013-05-14 09:07:00,
2013-05-14 05:12:00,36.9,16.5,30.09,WNW,283,0.0,0.0,43,0.00,,---,0.00,VWS V14.01,2013-05-14 09:12:00,
2013-05-14 05:17:00,36.7,16.8,30.09,WNW,283,0.0,0.0,44,0.00,,---,0.00,VWS V14.01,2013-05-14 09:17:00,
2013-05-14 05:22:00,36.5,17.2,30.09,WNW,283,0.0,0.0,45,0.00,,---,0.00,VWS V14.01,2013-05-14 09:22:00,
2013-05-14 05:27:00,36.3,17.5,30.09,WNW,283,0.0,0.0,46,0.00,,---,0.00,VWS V14.01,2013-05-14 09:27:00,
2013-05-14 05:32:00,36.1,17.4,30.09,WNW,283,0.0,0.0,46,0.00,,---,0.00,VWS V14.01,2013-05-14 09:32:00,
2013-05-14 05:37:00,36.0,17.2,30.09,WNW,283,0.0,0.0,46,0.00,,---,0.00,VWS V14.01,2013-05-14 09:37:00,
2013-05-14 05:42:00,35.8,17.5,30.09,WNW,283,0.0,0.0,47,0.00,,---,0.00,VWS V14.01,2013-05-14 09:42:00,
2013-05-14 05:47:00,35.8,18.0,30.09,WNW,283,0.0,0.0,48,0.00,,---,0.00,VWS V14.01,2013-05-14 09:47:00,
2013-05-14 05:52:00,35.6,17.9,30.09,WNW,283,0.0,0.0,48,0.00,,---,0.00,VWS V14.01,2013-05-14 09:52:00,
2013-05-14 05:57:00,35.4,18.2,30.09,WNW,283,0.0,0.0,49,0.00,,---,0.00,VWS V14.01,2013-05-14 09:57:00,
2013-05-14 06:02:00,35.2,18.5,30.09,WNW,283,0.0,0.0,50,0.00,,---,0.00,VWS V14.01,2013-05-14 10:02:00,
2013-05-14 06:07:00,35.2,18.9,30.09,WNW,283,0.0,0.0,51,0.00,,---,0.00,VWS V14.01,2013-05-14 10:07:00,
2013-05-14 06:12:00,35.2,18.9,30.09,WNW,283,0.0,0.0,51,0.00,,---,0.00,VWS V14.01,2013-05-14 10:12:00,
2013-05-14 06:17:00,35.1,19.2,30.09,WNW,283,0.0,0.0,52,0.00,,---,0.00,VWS V14.01,2013-05-14 10:17:00,
2013-05-14 06:22:00,35.1,19.7,30.09,WNW,283,0.0,0.0,53,0.00,,---,0.00,VWS V14.01,2013-05-14 10:22:00,
2013-05-14 06:27:00,35.2,19.8,30.09,WNW,283,0.0,0.0,53,0.00,,---,0.00,VWS V14.01,2013-05-14 10:27:00,
2013-05-14 06:32:00,35.4,20.4,30.09,WNW,283,0.0,0.0,54,0.00,,---,0.00,VWS V14.01,2013-05-14 10:32:00,
2013-05-14 06:37:00,35.6,20.6,30.09,WNW,283,0.0,3.6,54,0.00,,---,0.00,VWS V14.01,2013-05-14 10:37:00,
2013-05-14 06:42:00,35.8,21.2,30.09,WNW,283,0.0,3.6,55,0.00,,---,0.00,VWS V14.01,2013-05-14 10:42:00,
2013-05-14 06:47:00,36.1,21.5,30.09,WNW,283,0.0,4.5,55,0.00,,---,0.00,VWS V14.01,2013-05-14 10:47:00,
2013-05-14 06:52:00,36.3,21.7,30.09,WNW,283,0.0,3.1,55,0.00,,---,0.00,VWS V14.01,2013-05-14 10:52:00,
2013-05-14 06:57:00,36.7,22.0,30.09,WNW,283,0.0,0.0,55,0.00,,---,0.00,VWS V14.01,2013-05-14 10:57:00,
2013-05-14 07:02:00,37.0,22.4,30.09,WNW,283,0.0,0.0,55,0.00,,---,0.00,VWS V14.01,2013-05-14 11:02:00,
2013-05-14 07:07:00,37.2,22.6,30.09,WNW,283,0.0,0.0,55,0.00,,---,0.00,VWS V14.01,2013-05-14 11:07:00,
2013-05-14 07:12:00,37.2,22.6,30.09,WNW,283,0.0,0.0,55,0.00,,---,0.00,VWS V14.01,2013-05-14 11:12:00,
2013-05-14 07:17:00,37.4,22.7,30.09,WNW,283,0.0,0.0,55,0.00,,---,0.00,VWS V14.01,2013-05-14 11:17:00,
2013-05-14 07:22:00,37.8,23.1,30.09,WNW,283,0.0,0.0,55,0.00,,---,0.00,VWS V14.01,2013-05-14 11:22:00,
2013-05-14 07:27:00,38.3,23.1,30.09,WNW,283,0.0,3.6,54,0.00,,---,0.00,VWS V14.01,2013-05-14 11:27:00,
2013-05-14 07:32:00,38.8,23.6,30.09,WNW,283,0.0,3.6,54,0.00,,---,0.00,VWS V14.01,2013-05-14 11:32:00,
2013-05-14 07:37:00,39.4,24.1,30.09,West,281,4.0,6.9,54,0.00,,---,0.00,VWS V14.01,2013-05-14 11:37:00,
2013-05-14 07:42:00,39.9,24.2,30.09,WSW,258,6.3,6.7,53,0.00,,---,0.00,VWS V14.01,2013-05-14 11:42:00,
2013-05-14 07:47:00,40.5,24.2,30.09,WSW,257,3.1,8.7,52,0.00,,---,0.00,VWS V14.01,2013-05-14 11:47:00,
2013-05-14 07:52:00,41.2,23.5,30.09,West,267,5.8,6.7,49,0.00,,---,0.00,VWS V14.01,2013-05-14 11:52:00,
2013-05-14 07:57:00,41.9,22.1,30.09,West,259,0.0,10.5,45,0.00,,---,0.00,VWS V14.01,2013-05-14 11:57:00,
2013-05-14 08:02:00,42.3,20.3,30.09,NW,322,0.0,6.3,41,0.00,,---,0.00,VWS V14.01,2013-05-14 12:02:00,
2013-05-14 08:07:00,42.6,19.4,30.09,West,265,6.9,7.8,39,0.00,,---,0.00,VWS V14.01,2013-05-14 12:07:00,
2013-05-14 08:12:00,43.0,19.1,30.09,WNW,292,2.7,7.4,38,0.00,,---,0.00,VWS V14.01,2013-05-14 12:12:00,
2013-05-14 08:17:00,43.3,16.9,30.09,West,279,2.7,9.2,34,0.00,,---,0.00,VWS V14.01,2013-05-14 12:17:00,
2013-05-14 08:22:00,43.5,16.3,30.09,North,356,0.0,7.4,33,0.00,,---,0.00,VWS V14.01,2013-05-14 12:22:00,
2013-05-14 08:27:00,43.9,15.2,30.09,North,351,0.0,9.6,31,0.00,,---,0.00,VWS V14.01,2013-05-14 12:27:00,
2013-05-14 08:32:00,44.1,15.4,30.09,NNE,16,0.0,10.1,31,0.00,,---,0.00,VWS V14.01,2013-05-14 12:32:00,
2013-05-14 08:37:00,44.4,14.9,30.09,NE,37,0.0,10.1,30,0.00,,---,0.00,VWS V14.01,2013-05-14 12:37:00,
2013-05-14 08:42:00,44.6,15.1,30.09,North,356,0.0,2.7,30,0.00,,---,0.00,VWS V14.01,2013-05-14 12:42:00,
2013-05-14 08:47:00,45.0,14.6,30.09,NNE,25,5.8,7.4,29,0.00,,---,0.00,VWS V14.01,2013-05-14 12:47:00,
2013-05-14 08:52:00,45.5,14.3,30.09,North,351,0.0,6.7,28,0.00,,---,0.00,VWS V14.01,2013-05-14 12:52:00,
2013-05-14 08:57:00,45.9,13.8,30.09,NE,41,6.3,6.9,27,0.00,,---,0.00,VWS V14.01,2013-05-14 12:57:00,
2013-05-14 09:02:00,46.0,13.9,30.09,NNW,342,0.0,8.3,27,0.00,,---,0.00,VWS V14.01,2013-05-14 13:02:00,
2013-05-14 09:07:00,46.2,14.1,30.09,NE,38,6.3,7.8,27,0.00,,---,0.00,VWS V14.01,2013-05-14 13:07:00,
2013-05-14 09:12:00,46.4,11.6,30.09,North,1,4.9,9.6,24,0.00,,---,0.00,VWS V14.01,2013-05-14 13:12:00,
2013-05-14 09:17:00,46.6,11.7,30.09,WNW,284,6.3,7.4,24,0.00,,---,0.00,VWS V14.01,2013-05-14 13:17:00,
2013-05-14 09:22:00,46.9,10.1,30.09,North,3,4.5,8.3,22,0.00,,---,0.00,VWS V14.01,2013-05-14 13:22:00,
2013-05-14 09:27:00,47.1,10.2,30.09,NNE,22,5.4,7.4,22,0.00,,---,0.00,VWS V14.01,2013-05-14 13:27:00,
2013-05-14 09:32:00,47.3,10.4,30.09,ENE,59,6.9,7.8,22,0.00,,---,0.00,VWS V14.01,2013-05-14 13:32:00,
2013-05-14 09:37:00,47.5,7.3,30.09,NNE,26,6.3,8.7,19,0.00,,---,0.00,VWS V14.01,2013-05-14 13:37:00,
2013-05-14 09:42:00,47.5,7.3,30.09,NE,42,10.1,10.5,19,0.00,,---,0.00,VWS V14.01,2013-05-14 13:42:00,
2013-05-14 09:47:00,47.8,7.6,30.09,NE,39,5.4,10.1,19,0.00,,---,0.00,VWS V14.01,2013-05-14 13:47:00,
2013-05-14 09:52:00,47.8,7.6,30.09,North,8,3.6,9.2,19,0.00,,---,0.00,VWS V14.01,2013-05-14 13:52:00,
2013-05-14 09:57:00,48.2,7.9,30.09,NW,307,4.5,8.3,19,0.00,,---,0.00,VWS V14.01,2013-05-14 13:57:00,
2013-05-14 10:02:00,48.6,8.2,30.09,WNW,294,6.3,9.6,19,0.00,,---,0.00,VWS V14.01,2013-05-14 14:02:00,
2013-05-14 10:08:00,48.9,8.5,30.09,NNE,31,6.3,11.2,19,0.00,,---,0.00,VWS V14.01,2013-05-14 14:08:00,
2013-05-14 10:13:00,49.1,8.6,30.09,West,263,3.1,9.2,19,0.00,,---,0.00,VWS V14.01,2013-05-14 14:13:00,
2013-05-14 10:18:00,49.3,5.0,30.09,NNE,13,5.8,6.7,16,0.00,,---,0.00,VWS V14.01,2013-05-14 14:18:00,
2013-05-14 10:22:00,49.1,4.9,30.09,NNE,32,4.0,7.4,16,0.00,,---,0.00,VWS V14.01,2013-05-14 14:22:00,
2013-05-14 10:28:00,49.6,5.3,30.09,NNE,31,3.1,5.4,16,0.00,,---,0.00,VWS V14.01,2013-05-14 14:28:00,
2013-05-14 10:32:00,50.0,5.6,30.09,West,267,8.7,8.7,16,0.00,,---,0.00,VWS V14.01,2013-05-14 14:32:00,
2013-05-14 10:38:00,50.4,5.9,30.09,NNE,30,3.6,10.5,16,0.00,,---,0.00,VWS V14.01,2013-05-14 14:38:00,
2013-05-14 10:43:00,50.5,6.0,30.09,NE,41,4.5,7.8,16,0.00,,---,0.00,VWS V14.01,2013-05-14 14:43:00,
2013-05-14 10:48:00,50.9,6.3,30.09,West,271,5.4,9.6,16,0.00,,---,0.00,VWS V14.01,2013-05-14 14:48:00,
2013-05-14 10:53:00,51.8,7.1,30.09,West,270,6.3,10.1,16,0.00,,---,0.00,VWS V14.01,2013-05-14 14:53:00,
2013-05-14 10:58:00,52.9,6.5,30.09,NW,324,4.9,5.4,15,0.00,,---,0.00,VWS V14.01,2013-05-14 14:58:00,
2013-05-14 11:03:00,53.4,6.9,30.09,NNE,28,5.8,6.3,15,0.00,,---,0.00,VWS V14.01,2013-05-14 15:03:00,
2013-05-14 11:08:00,54.0,7.4,30.09,NE,36,5.4,9.6,15,0.00,,---,0.00,VWS V14.01,2013-05-14 15:08:00,
2013-05-14 11:13:00,54.9,8.1,30.09,WNW,289,7.4,8.7,15,0.00,,---,0.00,VWS V14.01,2013-05-14 15:13:00,
2013-05-14 11:18:00,55.8,8.8,30.09,WSW,238,2.7,11.0,15,0.00,,---,0.00,VWS V14.01,2013-05-14 15:18:00,
2013-05-14 11:23:00,56.7,8.0,30.09,WNW,297,9.2,13.0,14,0.00,,---,0.00,VWS V14.01,2013-05-14 15:23:00,
2013-05-14 11:28:00,57.6,8.7,30.09,West,278,4.5,10.5,14,0.00,,---,0.00,VWS V14.01,2013-05-14 15:28:00,
2013-05-14 11:33:00,57.2,5.1,30.09,NW,305,5.4,10.1,12,0.00,,---,0.00,VWS V14.01,2013-05-14 15:33:00,
2013-05-14 11:38:00,56.7,4.6,30.06,West,275,5.8,9.2,12,0.00,,---,0.00,VWS V14.01,2013-05-14 15:38:00,
2013-05-14 11:43:00,57.2,5.1,30.06,WSW,258,4.9,7.8,12,0.00,,---,0.00,VWS V14.01,2013-05-14 15:43:00,
2013-05-14 11:48:00,57.9,5.6,30.06,SW,222,4.9,10.5,12,0.00,,---,0.00,VWS V14.01,2013-05-14 15:48:00,
2013-05-14 11:53:00,57.9,5.6,30.06,ENE,59,4.0,6.3,12,0.00,,---,0.00,VWS V14.01,2013-05-14 15:53:00,
2013-05-14 11:58:00,58.5,6.1,30.06,West,275,0.0,6.7,12,0.00,,---,0.00,VWS V14.01,2013-05-14 15:58:00,
2013-05-14 12:03:00,59.2,6.6,30.06,SW,221,2.7,6.7,12,0.00,,---,0.00,VWS V14.01,2013-05-14 16:03:00,
2013-05-14 12:08:00,60.6,5.8,30.06,NW,313,4.5,10.5,11,0.00,,---,0.00,VWS V14.01,2013-05-14 16:08:00,
2013-05-14 12:13:00,61.3,6.4,30.06,North,356,4.0,15.4,11,0.00,,---,0.00,VWS V14.01,2013-05-14 16:13:00,
2013-05-14 12:18:00,59.2,6.6,30.06,North,356,0.0,10.5,12,0.00,,---,0.00,VWS V14.01,2013-05-14 16:18:00,
2013-05-14 12:23:00,58.5,6.1,30.06,NNW,342,0.0,6.3,12,0.00,,---,0.00,VWS V14.01,2013-05-14 16:23:00,
2013-05-14 12:28:00,60.3,5.6,30.06,NNW,329,0.0,2.7,11,0.00,,---,0.00,VWS V14.01,2013-05-14 16:28:00,
2013-05-14 12:33:00,61.3,6.4,30.06,ENE,59,0.0,7.4,11,0.00,,---,0.00,VWS V14.01,2013-05-14 16:33:00,
2013-05-14 12:38:00,60.1,5.4,30.06,NE,53,0.0,4.0,11,0.00,,---,0.00,VWS V14.01,2013-05-14 16:38:00,
2013-05-14 12:43:00,58.6,6.2,30.06,North,351,0.0,0.0,12,0.00,,---,0.00,VWS V14.01,2013-05-14 16:43:00,
2013-05-14 12:48:00,59.0,6.5,30.06,West,259,0.0,7.4,12,0.00,,---,0.00,VWS V14.01,2013-05-14 16:48:00,
2013-05-14 12:53:00,59.2,6.6,30.06,North,6,0.0,0.0,12,0.00,,---,0.00,VWS V14.01,2013-05-14 16:53:00,
2013-05-14 12:58:00,58.8,6.3,30.06,WNW,286,6.3,6.3,12,0.00,,---,0.00,VWS V14.01,2013-05-14 16:58:00,
2013-05-14 13:03:00,59.5,6.9,30.06,North,356,4.0,7.8,12,0.00,,---,0.00,VWS V14.01,2013-05-14 17:03:00,
2013-05-14 13:08:00,59.9,5.3,30.06,WSW,247,0.0,10.5,11,0.00,,---,0.00,VWS V14.01,2013-05-14 17:08:00,
2013-05-14 13:13:00,61.0,6.1,30.06,ENE,65,4.9,9.2,11,0.00,,---,0.00,VWS V14.01,2013-05-14 17:13:00,
2013-05-14 13:18:00,60.6,5.8,30.06,NE,46,0.0,0.0,11,0.00,,---,0.00,VWS V14.01,2013-05-14 17:18:00,
2013-05-14 13:23:00,61.7,6.7,30.06,NW,324,0.0,7.4,11,0.00,,---,0.00,VWS V14.01,2013-05-14 17:23:00,
2013-05-14 13:28:00,59.4,6.8,30.06,NE,41,0.0,4.9,12,0.00,,---,0.00,VWS V14.01,2013-05-14 17:28:00,
2013-05-14 13:33:00,60.4,5.7,30.06,SSE,152,0.0,7.8,11,0.00,,---,0.00,VWS V14.01,2013-05-14 17:33:00,
2013-05-14 13:38:00,60.3,5.6,30.06,NNE,23,0.0,8.3,11,0.00,,---,0.00,VWS V14.01,2013-05-14 17:38:00,
2013-05-14 13:43:00,59.7,7.0,30.06,NNE,17,0.0,0.0,12,0.00,,---,0.00,VWS V14.01,2013-05-14 17:43:00,
2013-05-14 13:48:00,60.1,5.4,30.06,ENE,77,0.0,5.4,11,0.00,,---,0.00,VWS V14.01,2013-05-14 17:48:00,
2013-05-14 13:53:00,59.7,7.0,30.06,North,351,0.0,0.0,12,0.00,,---,0.00,VWS V14.01,2013-05-14 17:53:00,
2013-05-14 13:58:00,59.2,6.6,30.06,NW,315,0.0,0.0,12,0.00,,---,0.00,VWS V14.01,2013-05-14 17:58:00,
2013-05-14 14:03:00,59.2,6.6,30.06,NE,36,0.0,7.8,12,0.00,,---,0.00,VWS V14.01,2013-05-14 18:03:00,
2013-05-14 14:08:00,58.5,6.1,30.06,NE,35,0.0,0.0,12,0.00,,---,0.00,VWS V14.01,2013-05-14 18:08:00,
2013-05-14 14:13:00,58.6,6.2,30.06,NE,37,0.0,0.0,12,0.00,,---,0.00,VWS V14.01,2013-05-14 18:13:00,
2013-05-14 14:18:00,59.2,6.6,30.06,WSW,256,0.0,5.8,12,0.00,,---,0.00,VWS V14.01,2013-05-14 18:18:00,
2013-05-14 14:23:00,60.4,5.7,30.06,WNW,298,0.0,4.5,11,0.00,,---,0.00,VWS V14.01,2013-05-14 18:23:00,
2013-05-14 14:28:00,61.2,6.3,30.06,West,270,0.0,0.0,11,0.00,,---,0.00,VWS V14.01,2013-05-14 18:28:00,
2013-05-14 14:33:00,61.7,6.7,30.06,WSW,257,0.0,11.2,11,0.00,,---,0.00,VWS V14.01,2013-05-14 18:33:00,
2013-05-14 14:38:00,61.2,6.3,30.06,North,356,0.0,0.0,11,0.00,,---,0.00,VWS V14.01,2013-05-14 18:38:00,
2013-05-14 14:43:00,60.4,5.7,30.06,North,5,0.0,0.0,11,0.00,,---,0.00,VWS V14.01,2013-05-14 18:43:00,
2013-05-14 14:48:00,60.6,5.8,30.06,NNW,334,0.0,0.0,11,0.00,,---,0.00,VWS V14.01,2013-05-14 18:48:00,
2013-05-14 14:53:00,60.6,5.8,30.06,West,272,5.8,7.4,11,0.00,,---,0.00,VWS V14.01,2013-05-14 18:53:00,
2013-05-14 14:58:00,60.3,5.6,30.06,North,351,0.0,0.0,11,0.00,,---,0.00,VWS V14.01,2013-05-14 18:58:00,
2013-05-14 15:03:00,59.9,5.3,30.06,WSW,252,0.0,6.3,11,0.00,,---,0.00,VWS V14.01,2013-05-14 19:03:00,
2013-05-14 15:08:00,59.9,5.3,30.03,West,273,0.0,5.4,11,0.00,,---,0.00,VWS V14.01,2013-05-14 19:08:00,
2013-05-14 15:13:00,61.5,6.5,30.03,NNW,340,0.0,6.7,11,0.00,,---,0.00,VWS V14.01,2013-05-14 19:13:00,
2013-05-14 15:18:00,61.5,6.5,30.03,NNE,21,0.0,3.6,11,0.00,,---,0.00,VWS V14.01,2013-05-14 19:18:00,
2013-05-14 15:23:00,61.2,6.3,30.03,NNE,29,0.0,0.0,11,0.00,,---,0.00,VWS V14.01,2013-05-14 19:23:00,
2013-05-14 15:28:00,61.2,6.3,30.03,West,281,0.0,7.4,11,0.00,,---,0.00,VWS V14.01,2013-05-14 19:28:00,
2013-05-14 15:33:00,62.6,7.4,30.03,WSW,248,0.0,5.8,11,0.00,,---,0.00,VWS V14.01,2013-05-14 19:33:00,
2013-05-14 15:38:00,63.9,6.2,30.03,NNE,27,0.0,4.9,10,0.00,,---,0.00,VWS V14.01,2013-05-14 19:38:00,
2013-05-14 15:43:00,64.2,6.5,30.03,North,351,0.0,0.0,10,0.00,,---,0.00,VWS V14.01,2013-05-14 19:43:00,
2013-05-14 15:48:00,64.8,6.9,30.03,WSW,257,0.0,6.7,10,0.00,,---,0.00,VWS V14.01,2013-05-14 19:48:00,
2013-05-14 15:54:00,64.8,6.9,30.03,North,356,0.0,10.5,10,0.00,,---,0.00,VWS V14.01,2013-05-14 19:54:00,
2013-05-14 15:59:00,64.8,6.9,30.03,West,270,0.0,3.6,10,0.00,,---,0.00,VWS V14.01,2013-05-14 19:59:00,
2013-05-14 16:04:00,64.6,6.8,30.03,NW,313,0.0,9.6,10,0.00,,---,0.00,VWS V14.01,2013-05-14 20:04:00,
2013-05-14 16:09:00,64.6,6.8,30.03,West,281,6.3,6.3,10,0.00,,---,0.00,VWS V14.01,2013-05-14 20:09:00,
2013-05-14 16:14:00,64.8,6.9,30.03,NNW,340,0.0,0.0,10,0.00,,---,0.00,VWS V14.01,2013-05-14 20:14:00,
2013-05-14 16:19:00,64.8,6.9,30.03,ENE,60,0.0,0.0,10,0.00,,---,0.00,VWS V14.01,2013-05-14 20:19:00,
2013-05-14 16:24:00,64.2,6.5,30.03,NE,43,0.0,0.0,10,0.00,,---,0.00,VWS V14.01,2013-05-14 20:24:00,
2013-05-14 16:29:00,63.0,7.7,30.03,SSW,213,0.0,0.0,11,0.00,,---,0.00,VWS V14.01,2013-05-14 20:29:00,
2013-05-14 16:34:00,62.8,7.5,30.03,West,263,0.0,0.0,11,0.00,,---,0.00,VWS V14.01,2013-05-14 20:34:00,
2013-05-14 16:39:00,63.0,7.7,30.03,NNW,330,0.0,0.0,11,0.00,,---,0.00,VWS V14.01,2013-05-14 20:39:00,
2013-05-14 16:44:00,64.2,6.5,30.03,NNE,22,4.5,4.5,10,0.00,,---,0.00,VWS V14.01,2013-05-14 20:44:00,
2013-05-14 16:49:00,63.5,6.0,30.03,WNW,295,0.0,0.0,10,0.00,,---,0.00,VWS V14.01,2013-05-14 20:49:00,
2013-05-14 16:54:00,63.0,7.7,30.03,West,263,0.0,4.0,11,0.00,,---,0.00,VWS V14.01,2013-05-14 20:54:00,
2013-05-14 16:59:00,63.7,6.1,30.03,West,271,0.0,0.0,10,0.00,,---,0.00,VWS V14.01,2013-05-14 20:59:00,
2013-05-14 17:04:00,65.5,7.5,30.03,WNW,299,2.7,5.4,10,0.00,,---,0.00,VWS V14.01,2013-05-14 21:04:00,
2013-05-14 17:09:00,65.1,7.2,30.00,WSW,243,3.6,4.5,10,0.00,,---,0.00,VWS V14.01,2013-05-14 21:09:00,
2013-05-14 17:14:00,63.9,6.2,30.00,West,278,6.3,6.3,10,0.00,,---,0.00,VWS V14.01,2013-05-14 21:14:00,
2013-05-14 17:19:00,62.8,7.5,30.00,SW,224,0.0,0.0,11,0.00,,---,0.00,VWS V14.01,2013-05-14 21:19:00,
2013-05-14 17:24:00,63.0,7.7,30.00,NNW,342,3.6,3.6,11,0.00,,---,0.00,VWS V14.01,2013-05-14 21:24:00,
2013-05-14 17:29:00,63.0,7.7,30.00,West,275,0.0,4.0,11,0.00,,---,0.00,VWS V14.01,2013-05-14 21:29:00,
2013-05-14 17:34:00,62.4,7.2,30.00,NNE,19,3.1,4.5,11,0.00,,---,0.00,VWS V14.01,2013-05-14 21:34:00,
2013-05-14 17:39:00,61.7,6.7,30.00,West,275,7.8,7.8,11,0.00,,---,0.00,VWS V14.01,2013-05-14 21:39:00,
2013-05-14 17:44:00,62.1,7.0,30.00,WNW,303,0.0,7.8,11,0.00,,---,0.00,VWS V14.01,2013-05-14 21:44:00,
2013-05-14 17:49:00,62.2,7.1,30.00,SSE,149,3.1,10.5,11,0.00,,---,0.00,VWS V14.01,2013-05-14 21:49:00,
2013-05-14 17:54:00,62.6,7.4,30.00,West,273,5.8,8.3,11,0.00,,---,0.00,VWS V14.01,2013-05-14 21:54:00,
2013-05-14 17:59:00,61.9,6.8,30.00,West,272,6.7,8.7,11,0.00,,---,0.00,VWS V14.01,2013-05-14 21:59:00,
2013-05-14 18:04:00,61.7,6.7,30.00,WSW,254,2.7,4.0,11,0.00,,---,0.00,VWS V14.01,2013-05-14 22:04:00,
2013-05-14 18:09:00,60.8,6.0,30.00,West,277,2.7,5.8,11,0.00,,---,0.00,VWS V14.01,2013-05-14 22:09:00,
2013-05-14 18:14:00,61.2,6.3,30.00,West,276,4.5,4.5,11,0.00,,---,0.00,VWS V14.01,2013-05-14 22:14:00,
2013-05-14 18:19:00,62.2,7.1,30.00,WNW,296,0.0,4.9,11,0.00,,---,0.00,VWS V14.01,2013-05-14 22:19:00,
2013-05-14 18:24:00,62.6,7.4,30.00,West,264,7.8,8.3,11,0.00,,---,0.00,VWS V14.01,2013-05-14 22:24:00,
2013-05-14 18:29:00,62.1,7.0,30.00,West,276,7.4,7.4,11,0.00,,---,0.00,VWS V14.01,2013-05-14 22:29:00,
2013-05-14 18:34:00,61.7,6.7,30.00,WSW,255,0.0,0.0,11,0.00,,---,0.00,VWS V14.01,2013-05-14 22:34:00,
2013-05-14 18:39:00,61.5,6.5,30.00,WSW,254,0.0,0.0,11,0.00,,---,0.00,VWS V14.01,2013-05-14 22:39:00,
2013-05-14 18:44:00,61.3,6.4,30.00,WSW,241,4.0,4.0,11,0.00,,---,0.00,VWS V14.01,2013-05-14 22:44:00,
2013-05-14 18:49:00,60.8,6.0,30.00,North,356,0.0,3.1,11,0.00,,---,0.00,VWS V14.01,2013-05-14 22:49:00,
2013-05-14 18:54:00,60.3,5.6,30.00,WNW,283,0.0,0.0,11,0.00,,---,0.00,VWS V14.01,2013-05-14 22:54:00,
2013-05-14 18:59:00,59.9,5.3,30.00,NE,36,0.0,0.0,11,0.00,,---,0.00,VWS V14.01,2013-05-14 22:59:00,
2013-05-14 19:04:00,59.4,6.8,30.00,NE,36,0.0,0.0,12,0.00,,---,0.00,VWS V14.01,2013-05-14 23:04:00,
2013-05-14 19:09:00,58.8,6.3,30.00,NE,37,0.0,0.0,12,0.00,,---,0.00,VWS V14.01,2013-05-14 23:09:00,
2013-05-14 19:14:00,58.6,6.2,30.00,NE,36,0.0,0.0,12,0.00,,---,0.00,VWS V14.01,2013-05-14 23:14:00,
2013-05-14 19:19:00,58.3,5.9,30.00,NE,36,0.0,0.0,12,0.00,,---,0.00,VWS V14.01,2013-05-14 23:19:00,
2013-05-14 19:24:00,57.9,5.6,30.00,North,351,0.0,0.0,12,0.00,,---,0.00,VWS V14.01,2013-05-14 23:24:00,
2013-05-14 19:29:00,57.6,5.3,30.00,SSW,213,0.0,0.0,12,0.00,,---,0.00,VWS V14.01,2013-05-14 23:29:00,
2013-05-14 19:34:00,57.2,5.1,30.00,SSW,213,0.0,0.0,12,0.00,,---,0.00,VWS V14.01,2013-05-14 23:34:00,
2013-05-14 19:39:00,56.7,4.6,30.00,SSW,213,0.0,0.0,12,0.00,,---,0.00,VWS V14.01,2013-05-14 23:39:00,
2013-05-14 19:44:00,55.9,4.1,30.00,SSW,213,0.0,0.0,12,0.00,,---,0.00,VWS V14.01,2013-05-14 23:44:00,
2013-05-14 19:49:00,55.2,3.5,30.00,SSW,213,0.0,0.0,12,0.00,,---,0.00,VWS V14.01,2013-05-14 23:49:00,
2013-05-14 19:54:00,54.3,4.5,30.03,SSW,213,0.0,0.0,13,0.00,,---,0.00,VWS V14.01,2013-05-14 23:54:00,
2013-05-14 19:59:00,53.8,4.1,30.03,SSW,213,0.0,0.0,13,0.00,,---,0.00,VWS V14.01,2013-05-14 23:59:00,
2013-05-14 20:04:00,53.2,3.7,30.03,SSW,213,0.0,0.0,13,0.00,,---,0.00,VWS V14.01,2013-05-15 00:04:00,
2013-05-14 20:09:00,52.7,3.2,30.03,SSW,213,0.0,0.0,13,0.00,,---,0.00,VWS V14.01,2013-05-15 00:09:00,
2013-05-14 20:14:00,52.2,2.8,30.03,SSW,213,0.0,0.0,13,0.00,,---,0.00,VWS V14.01,2013-05-15 00:14:00,
2013-05-14 20:19:00,51.6,2.4,30.03,SSW,213,0.0,0.0,13,0.00,,---,0.00,VWS V14.01,2013-05-15 00:19:00,
2013-05-14 20:24:00,51.1,6.5,30.03,SSW,213,0.0,0.0,16,0.00,,---,0.00,VWS V14.01,2013-05-15 00:24:00,
2013-05-14 20:30:00,50.7,6.2,30.03,SSW,213,0.0,0.0,16,0.00,,---,0.00,VWS V14.01,2013-05-15 00:30:00,
2013-05-14 20:34:00,50.4,5.9,30.03,SSW,213,0.0,0.0,16,0.00,,---,0.00,VWS V14.01,2013-05-15 00:34:00,
2013-05-14 20:39:00,50.0,2.7,30.03,SSW,213,0.0,0.0,14,0.00,,---,0.00,VWS V14.01,2013-05-15 00:39:00,
2013-05-14 20:45:00,49.6,2.4,30.03,SSW,213,0.0,0.0,14,0.00,,---,0.00,VWS V14.01,2013-05-15 00:45:00,
2013-05-14 20:50:00,49.3,2.1,30.03,SSW,213,0.0,0.0,14,0.00,,---,0.00,VWS V14.01,2013-05-15 00:50:00,
2013-05-14 20:55:00,48.9,4.7,30.03,SSW,213,0.0,0.0,16,0.00,,---,0.00,VWS V14.01,2013-05-15 00:55:00,
2013-05-14 21:00:00,48.6,4.4,30.03,SSW,213,0.0,0.0,16,0.00,,---,0.00,VWS V14.01,2013-05-15 01:00:00,
2013-05-14 21:05:00,48.2,4.1,30.03,SSW,213,0.0,0.0,16,0.00,,---,0.00,VWS V14.01,2013-05-15 01:05:00,
2013-05-14 21:10:00,48.0,4.0,30.03,SSW,213,0.0,0.0,16,0.00,,---,0.00,VWS V14.01,2013-05-15 01:10:00,
2013-05-14 21:15:00,47.7,3.7,30.03,SSW,213,0.0,0.0,16,0.00,,---,0.00,VWS V14.01,2013-05-15 01:15:00,
2013-05-14 21:20:00,47.5,3.5,30.03,SSW,213,0.0,0.0,16,0.00,,---,0.00,VWS V14.01,2013-05-15 01:20:00,
2013-05-14 21:25:00,47.3,4.7,30.03,SSW,213,0.0,0.0,17,0.00,,---,0.00,VWS V14.01,2013-05-15 01:25:00,
2013-05-14 21:30:00,46.9,6.8,30.03,SSW,213,0.0,0.0,19,0.00,,---,0.00,VWS V14.01,2013-05-15 01:30:00,
2013-05-14 21:35:00,46.8,6.7,30.03,SSW,213,0.0,0.0,19,0.00,,---,0.00,VWS V14.01,2013-05-15 01:35:00,
2013-05-14 21:40:00,46.2,6.2,30.06,SSW,213,0.0,0.0,19,0.00,,---,0.00,VWS V14.01,2013-05-15 01:40:00,
2013-05-14 21:45:00,45.7,9.0,30.06,SSW,213,0.0,0.0,22,0.00,,---,0.00,VWS V14.01,2013-05-15 01:45:00,
2013-05-14 21:50:00,45.3,11.6,30.06,SSW,213,0.0,0.0,25,0.00,,---,0.00,VWS V14.01,2013-05-15 01:50:00,
2013-05-14 21:55:00,45.0,13.0,30.06,SSW,213,0.0,0.0,27,0.00,,---,0.00,VWS V14.01,2013-05-15 01:55:00,
2013-05-14 22:00:00,44.8,13.7,30.06,SSW,213,0.0,0.0,28,0.00,,---,0.00,VWS V14.01,2013-05-15 02:00:00,
2013-05-14 22:05:00,44.8,13.7,30.06,SSW,213,0.0,0.0,28,0.00,,---,0.00,VWS V14.01,2013-05-15 02:05:00,
2013-05-14 22:10:00,44.6,13.5,30.06,SSW,213,0.0,0.0,28,0.00,,---,0.00,VWS V14.01,2013-05-15 02:10:00,
2013-05-14 22:15:00,44.4,13.4,30.06,SSW,213,0.0,0.0,28,0.00,,---,0.00,VWS V14.01,2013-05-15 02:15:00,
2013-05-14 22:20:00,44.1,13.9,30.06,SSW,213,0.0,0.0,29,0.00,,---,0.00,VWS V14.01,2013-05-15 02:20:00,
2013-05-14 22:25:00,43.7,14.3,30.06,SSW,213,0.0,0.0,30,0.00,,---,0.00,VWS V14.01,2013-05-15 02:25:00,
2013-05-14 22:30:00,43.5,15.6,30.06,SSW,213,0.0,0.0,32,0.00,,---,0.00,VWS V14.01,2013-05-15 02:30:00,
2013-05-14 22:35:00,43.3,15.5,30.06,SSW,213,0.0,0.0,32,0.00,,---,0.00,VWS V14.01,2013-05-15 02:35:00,
2013-05-14 22:40:00,43.0,15.9,30.06,SSW,213,0.0,0.0,33,0.00,,---,0.00,VWS V14.01,2013-05-15 02:40:00,
2013-05-14 22:45:00,42.8,16.4,30.06,SSW,213,0.0,0.0,34,0.00,,---,0.00,VWS V14.01,2013-05-15 02:45:00,
2013-05-14 22:50:00,42.8,16.4,30.06,SSW,213,0.0,0.0,34,0.00,,---,0.00,VWS V14.01,2013-05-15 02:50:00,
2013-05-14 22:55:00,42.6,16.2,30.06,SSW,213,0.0,0.0,34,0.00,,---,0.00,VWS V14.01,2013-05-15 02:55:00,
2013-05-14 23:00:00,42.4,16.1,30.06,SSW,213,0.0,0.0,34,0.00,,---,0.00,VWS V14.01,2013-05-15 03:00:00,
2013-05-14 23:05:00,42.3,15.9,30.06,SSW,213,0.0,0.0,34,0.00,,---,0.00,VWS V14.01,2013-05-15 03:05:00,
2013-05-14 23:10:00,42.3,15.9,30.06,SSW,213,0.0,0.0,34,0.00,,---,0.00,VWS V14.01,2013-05-15 03:10:00,
2013-05-14 23:15:00,42.1,16.4,30.06,SSW,213,0.0,0.0,35,0.00,,---,0.00,VWS V14.01,2013-05-15 03:15:00,
2013-05-14 23:20:00,41.7,17.4,30.06,SSW,213,0.0,0.0,37,0.00,,---,0.00,VWS V14.01,2013-05-15 03:20:00,
2013-05-14 23:25:00,41.5,17.8,30.06,SSW,213,0.0,0.0,38,0.00,,---,0.00,VWS V14.01,2013-05-15 03:25:00,
2013-05-14 23:30:00,41.4,17.7,30.06,SSW,213,0.0,0.0,38,0.00,,---,0.00,VWS V14.01,2013-05-15 03:30:00,
2013-05-14 23:35:00,41.2,18.1,30.06,SSW,213,0.0,0.0,39,0.00,,---,0.00,VWS V14.01,2013-05-15 03:35:00,
2013-05-14 23:40:00,41.0,18.0,30.06,SSW,213,0.0,0.0,39,0.00,,---,0.00,VWS V14.01,2013-05-15 03:40:00,
2013-05-14 23:45:00,40.8,18.4,30.06,SSW,213,0.0,0.0,40,0.00,,---,0.00,VWS V14.01,2013-05-15 03:45:00,
2013-05-14 23:50:00,40.8,18.4,30.06,SSW,213,0.0,0.0,40,0.00,,---,0.00,VWS V14.01,2013-05-15 03:50:00,
2013-05-14 23:55:00,40.6,18.2,30.06,SSW,213,0.0,0.0,40,0.00,,---,0.00,VWS V14.01,2013-05-15 03:55:00,